sensor_id;sensor_type;location;lat;lon;timestamp;P1;durP1;ratioP1;P2;durP2;ratioP2
79574;SDS011;69044;48.198;11.468;2023-12-22T00:00:38;1.80;;;1.00;;
79574;SDS011;69044;48.198;11.468;2023-12-22T00:03:05;1.42;;;0.90;;
79574;SDS011;69044;48.198;11.468;2023-12-22T00:05:32;2.00;;;1.00;;
79574;SDS011;69044;48.198;11.468;2023-12-22T00:07:59;1.38;;;0.93;;
79574;SDS011;69044;48.198;11.468;2023-12-22T00:10:28;5.45;;;1.13;;
79574;SDS011;69044;48.198;11.468;2023-12-22T00:12:55;0.68;;;0.68;;
79574;SDS011;69044;48.198;11.468;2023-12-22T00:15:22;0.38;;;0.38;;
79574;SDS011;69044;48.198;11.468;2023-12-22T00:17:49;0.35;;;0.35;;
79574;SDS011;69044;48.198;11.468;2023-12-22T00:20:16;0.32;;;0.32;;
79574;SDS011;69044;48.198;11.468;2023-12-22T00:22:44;0.55;;;0.32;;
79574;SDS011;69044;48.198;11.468;2023-12-22T00:25:11;0.95;;;0.60;;
79574;SDS011;69044;48.198;11.468;2023-12-22T00:27:40;0.88;;;0.52;;
79574;SDS011;69044;48.198;11.468;2023-12-22T00:30:07;0.40;;;0.40;;
79574;SDS011;69044;48.198;11.468;2023-12-22T00:32:36;0.22;;;0.22;;
79574;SDS011;69044;48.198;11.468;2023-12-22T00:35:02;0.50;;;0.43;;
79574;SDS011;69044;48.198;11.468;2023-12-22T00:37:30;1.17;;;0.40;;
79574;SDS011;69044;48.198;11.468;2023-12-22T00:39:57;0.40;;;0.40;;
79574;SDS011;69044;48.198;11.468;2023-12-22T00:42:24;0.68;;;0.68;;
79574;SDS011;69044;48.198;11.468;2023-12-22T00:44:53;0.35;;;0.35;;
79574;SDS011;69044;48.198;11.468;2023-12-22T00:47:20;1.25;;;0.65;;
79574;SDS011;69044;48.198;11.468;2023-12-22T00:49:47;0.70;;;0.60;;
79574;SDS011;69044;48.198;11.468;2023-12-22T00:52:15;0.65;;;0.40;;
79574;SDS011;69044;48.198;11.468;2023-12-22T00:54:42;0.80;;;0.65;;
79574;SDS011;69044;48.198;11.468;2023-12-22T00:57:09;0.57;;;0.47;;
79574;SDS011;69044;48.198;11.468;2023-12-22T00:59:36;0.52;;;0.47;;
79574;SDS011;69044;48.198;11.468;2023-12-22T01:02:05;0.60;;;0.60;;
79574;SDS011;69044;48.198;11.468;2023-12-22T01:04:32;0.50;;;0.50;;
79574;SDS011;69044;48.198;11.468;2023-12-22T01:06:59;1.65;;;0.35;;
79574;SDS011;69044;48.198;11.468;2023-12-22T01:09:26;0.30;;;0.30;;
79574;SDS011;69044;48.198;11.468;2023-12-22T01:11:53;0.98;;;0.90;;
79574;SDS011;69044;48.198;11.468;2023-12-22T01:14:20;0.57;;;0.57;;
79574;SDS011;69044;48.198;11.468;2023-12-22T01:16:47;0.88;;;0.50;;
79574;SDS011;69044;48.198;11.468;2023-12-22T01:19:16;0.55;;;0.55;;
79574;SDS011;69044;48.198;11.468;2023-12-22T01:21:43;0.55;;;0.50;;
79574;SDS011;69044;48.198;11.468;2023-12-22T01:24:10;1.67;;;0.60;;
79574;SDS011;69044;48.198;11.468;2023-12-22T01:26:37;0.60;;;0.60;;
79574;SDS011;69044;48.198;11.468;2023-12-22T01:29:04;1.23;;;0.55;;
79574;SDS011;69044;48.198;11.468;2023-12-22T01:31:31;1.30;;;0.60;;
79574;SDS011;69044;48.198;11.468;2023-12-22T01:33:59;1.00;;;0.95;;
79574;SDS011;69044;48.198;11.468;2023-12-22T01:36:27;1.15;;;0.95;;
79574;SDS011;69044;48.198;11.468;2023-12-22T01:38:54;0.77;;;0.50;;
79574;SDS011;69044;48.198;11.468;2023-12-22T01:41:21;0.35;;;0.35;;
79574;SDS011;69044;48.198;11.468;2023-12-22T01:43:48;0.43;;;0.43;;
79574;SDS011;69044;48.198;11.468;2023-12-22T01:46:16;1.25;;;0.68;;
79574;SDS011;69044;48.198;11.468;2023-12-22T01:48:43;0.68;;;0.68;;
79574;SDS011;69044;48.198;11.468;2023-12-22T01:51:10;2.10;;;0.47;;
79574;SDS011;69044;48.198;11.468;2023-12-22T01:53:39;0.82;;;0.40;;
79574;SDS011;69044;48.198;11.468;2023-12-22T01:56:06;0.65;;;0.65;;
79574;SDS011;69044;48.198;11.468;2023-12-22T01:58:34;0.88;;;0.30;;
79574;SDS011;69044;48.198;11.468;2023-12-22T02:01:12;1.10;;;0.80;;
79574;SDS011;69044;48.198;11.468;2023-12-22T02:03:39;0.80;;;0.80;;
79574;SDS011;69044;48.198;11.468;2023-12-22T02:06:07;0.52;;;0.47;;
79574;SDS011;69044;48.198;11.468;2023-12-22T02:08:34;0.80;;;0.80;;
79574;SDS011;69044;48.198;11.468;2023-12-22T02:11:03;0.88;;;0.50;;
79574;SDS011;69044;48.198;11.468;2023-12-22T02:13:30;0.43;;;0.43;;
79574;SDS011;69044;48.198;11.468;2023-12-22T02:16:00;0.60;;;0.50;;
79574;SDS011;69044;48.198;11.468;2023-12-22T02:18:30;0.50;;;0.50;;
79574;SDS011;69044;48.198;11.468;2023-12-22T02:21:00;1.13;;;0.57;;
79574;SDS011;69044;48.198;11.468;2023-12-22T02:23:29;0.52;;;0.50;;
79574;SDS011;69044;48.198;11.468;2023-12-22T02:25:57;0.55;;;0.52;;
79574;SDS011;69044;48.198;11.468;2023-12-22T02:28:31;0.50;;;0.50;;
79574;SDS011;69044;48.198;11.468;2023-12-22T02:31:00;0.30;;;0.30;;
79574;SDS011;69044;48.198;11.468;2023-12-22T02:33:29;0.85;;;0.47;;
79574;SDS011;69044;48.198;11.468;2023-12-22T02:35:56;1.13;;;0.80;;
79574;SDS011;69044;48.198;11.468;2023-12-22T02:38:25;0.50;;;0.50;;
79574;SDS011;69044;48.198;11.468;2023-12-22T02:40:53;0.50;;;0.50;;
79574;SDS011;69044;48.198;11.468;2023-12-22T02:43:21;0.50;;;0.50;;
79574;SDS011;69044;48.198;11.468;2023-12-22T02:45:49;1.10;;;0.80;;
79574;SDS011;69044;48.198;11.468;2023-12-22T02:48:17;1.10;;;0.57;;
79574;SDS011;69044;48.198;11.468;2023-12-22T02:50:44;0.32;;;0.32;;
79574;SDS011;69044;48.198;11.468;2023-12-22T02:53:11;0.80;;;0.60;;
79574;SDS011;69044;48.198;11.468;2023-12-22T02:55:39;0.68;;;0.47;;
79574;SDS011;69044;48.198;11.468;2023-12-22T02:58:07;0.47;;;0.47;;
79574;SDS011;69044;48.198;11.468;2023-12-22T03:00:34;0.70;;;0.70;;
79574;SDS011;69044;48.198;11.468;2023-12-22T03:03:01;0.40;;;0.30;;
79574;SDS011;69044;48.198;11.468;2023-12-22T03:05:29;0.50;;;0.47;;
79574;SDS011;69044;48.198;11.468;2023-12-22T03:07:56;0.47;;;0.45;;
79574;SDS011;69044;48.198;11.468;2023-12-22T03:10:23;0.40;;;0.40;;
79574;SDS011;69044;48.198;11.468;2023-12-22T03:12:50;0.70;;;0.70;;
79574;SDS011;69044;48.198;11.468;2023-12-22T03:15:18;0.82;;;0.82;;
79574;SDS011;69044;48.198;11.468;2023-12-22T03:17:46;0.32;;;0.32;;
79574;SDS011;69044;48.198;11.468;2023-12-22T03:20:13;0.73;;;0.73;;
79574;SDS011;69044;48.198;11.468;2023-12-22T03:22:40;0.50;;;0.50;;
79574;SDS011;69044;48.198;11.468;2023-12-22T03:25:07;0.30;;;0.30;;
79574;SDS011;69044;48.198;11.468;2023-12-22T03:27:34;0.75;;;0.75;;
79574;SDS011;69044;48.198;11.468;2023-12-22T03:30:02;0.28;;;0.28;;
79574;SDS011;69044;48.198;11.468;2023-12-22T03:32:31;0.80;;;0.80;;
79574;SDS011;69044;48.198;11.468;2023-12-22T03:34:58;0.30;;;0.30;;
79574;SDS011;69044;48.198;11.468;2023-12-22T03:37:25;0.73;;;0.70;;
79574;SDS011;69044;48.198;11.468;2023-12-22T03:39:53;1.05;;;0.90;;
79574;SDS011;69044;48.198;11.468;2023-12-22T03:42:20;0.30;;;0.30;;
79574;SDS011;69044;48.198;11.468;2023-12-22T03:44:47;0.45;;;0.40;;
79574;SDS011;69044;48.198;11.468;2023-12-22T03:47:14;0.60;;;0.57;;
79574;SDS011;69044;48.198;11.468;2023-12-22T03:49:42;0.38;;;0.32;;
79574;SDS011;69044;48.198;11.468;2023-12-22T03:52:10;0.47;;;0.47;;
79574;SDS011;69044;48.198;11.468;2023-12-22T03:54:37;0.60;;;0.50;;
79574;SDS011;69044;48.198;11.468;2023-12-22T03:57:04;1.17;;;1.13;;
79574;SDS011;69044;48.198;11.468;2023-12-22T03:59:31;1.73;;;0.65;;
79574;SDS011;69044;48.198;11.468;2023-12-22T04:01:58;0.60;;;0.45;;
79574;SDS011;69044;48.198;11.468;2023-12-22T04:04:27;0.63;;;0.60;;
79574;SDS011;69044;48.198;11.468;2023-12-22T04:06:55;1.33;;;1.02;;
79574;SDS011;69044;48.198;11.468;2023-12-22T04:09:22;1.23;;;0.90;;
79574;SDS011;69044;48.198;11.468;2023-12-22T04:11:49;0.45;;;0.45;;
79574;SDS011;69044;48.198;11.468;2023-12-22T04:14:16;2.38;;;0.90;;
79574;SDS011;69044;48.198;11.468;2023-12-22T04:16:44;0.90;;;0.80;;
79574;SDS011;69044;48.198;11.468;2023-12-22T04:19:11;1.38;;;0.90;;
79574;SDS011;69044;48.198;11.468;2023-12-22T04:21:38;1.25;;;1.00;;
79574;SDS011;69044;48.198;11.468;2023-12-22T04:24:06;1.52;;;0.90;;
79574;SDS011;69044;48.198;11.468;2023-12-22T04:26:34;2.42;;;1.30;;
79574;SDS011;69044;48.198;11.468;2023-12-22T04:29:01;2.67;;;1.20;;
79574;SDS011;69044;48.198;11.468;2023-12-22T04:31:29;2.55;;;1.30;;
79574;SDS011;69044;48.198;11.468;2023-12-22T04:33:56;1.13;;;0.95;;
79574;SDS011;69044;48.198;11.468;2023-12-22T04:36:23;2.80;;;0.88;;
79574;SDS011;69044;48.198;11.468;2023-12-22T04:38:50;3.60;;;1.15;;
79574;SDS011;69044;48.198;11.468;2023-12-22T04:41:18;1.85;;;1.30;;
79574;SDS011;69044;48.198;11.468;2023-12-22T04:43:45;2.78;;;1.30;;
79574;SDS011;69044;48.198;11.468;2023-12-22T04:46:13;1.27;;;0.75;;
79574;SDS011;69044;48.198;11.468;2023-12-22T04:48:40;1.15;;;0.90;;
79574;SDS011;69044;48.198;11.468;2023-12-22T04:51:07;1.40;;;0.95;;
79574;SDS011;69044;48.198;11.468;2023-12-22T04:53:34;2.45;;;1.50;;
79574;SDS011;69044;48.198;11.468;2023-12-22T04:56:01;0.80;;;0.70;;
79574;SDS011;69044;48.198;11.468;2023-12-22T04:58:29;1.20;;;1.10;;
79574;SDS011;69044;48.198;11.468;2023-12-22T05:00:57;1.10;;;0.90;;
79574;SDS011;69044;48.198;11.468;2023-12-22T05:03:25;1.33;;;1.00;;
79574;SDS011;69044;48.198;11.468;2023-12-22T05:05:52;3.80;;;1.20;;
79574;SDS011;69044;48.198;11.468;2023-12-22T05:08:19;1.15;;;1.00;;
79574;SDS011;69044;48.198;11.468;2023-12-22T05:10:46;3.00;;;1.20;;
79574;SDS011;69044;48.198;11.468;2023-12-22T05:13:13;2.80;;;0.90;;
79574;SDS011;69044;48.198;11.468;2023-12-22T05:15:42;3.95;;;1.15;;
79574;SDS011;69044;48.198;11.468;2023-12-22T05:18:09;1.42;;;0.80;;
79574;SDS011;69044;48.198;11.468;2023-12-22T05:20:36;1.80;;;0.95;;
79574;SDS011;69044;48.198;11.468;2023-12-22T05:23:03;2.63;;;1.17;;
79574;SDS011;69044;48.198;11.468;2023-12-22T05:25:30;1.23;;;0.73;;
79574;SDS011;69044;48.198;11.468;2023-12-22T05:27:59;1.15;;;0.95;;
79574;SDS011;69044;48.198;11.468;2023-12-22T05:30:26;1.25;;;0.82;;
79574;SDS011;69044;48.198;11.468;2023-12-22T05:32:55;3.42;;;1.00;;
79574;SDS011;69044;48.198;11.468;2023-12-22T05:35:22;2.30;;;1.20;;
79574;SDS011;69044;48.198;11.468;2023-12-22T05:37:49;1.88;;;0.88;;
79574;SDS011;69044;48.198;11.468;2023-12-22T05:40:16;1.80;;;0.90;;
79574;SDS011;69044;48.198;11.468;2023-12-22T05:42:43;2.50;;;1.30;;
79574;SDS011;69044;48.198;11.468;2023-12-22T05:45:10;1.83;;;0.85;;
79574;SDS011;69044;48.198;11.468;2023-12-22T05:47:37;3.13;;;1.10;;
79574;SDS011;69044;48.198;11.468;2023-12-22T05:50:07;1.38;;;0.90;;
79574;SDS011;69044;48.198;11.468;2023-12-22T05:52:36;2.08;;;1.10;;
79574;SDS011;69044;48.198;11.468;2023-12-22T05:55:04;3.58;;;1.38;;
79574;SDS011;69044;48.198;11.468;2023-12-22T05:57:31;2.83;;;0.98;;
79574;SDS011;69044;48.198;11.468;2023-12-22T05:59:59;2.33;;;1.10;;
79574;SDS011;69044;48.198;11.468;2023-12-22T06:02:26;2.03;;;0.90;;
79574;SDS011;69044;48.198;11.468;2023-12-22T06:04:53;2.60;;;0.80;;
79574;SDS011;69044;48.198;11.468;2023-12-22T06:07:21;1.05;;;0.70;;
79574;SDS011;69044;48.198;11.468;2023-12-22T06:09:49;0.77;;;0.70;;
79574;SDS011;69044;48.198;11.468;2023-12-22T06:12:16;1.88;;;0.82;;
79574;SDS011;69044;48.198;11.468;2023-12-22T06:14:44;0.77;;;0.77;;
79574;SDS011;69044;48.198;11.468;2023-12-22T06:17:11;0.85;;;0.80;;
79574;SDS011;69044;48.198;11.468;2023-12-22T06:19:38;0.60;;;0.60;;
79574;SDS011;69044;48.198;11.468;2023-12-22T06:22:05;2.72;;;0.80;;
79574;SDS011;69044;48.198;11.468;2023-12-22T06:24:35;1.30;;;0.68;;
79574;SDS011;69044;48.198;11.468;2023-12-22T06:27:02;3.10;;;0.90;;
79574;SDS011;69044;48.198;11.468;2023-12-22T06:29:32;2.05;;;0.70;;
79574;SDS011;69044;48.198;11.468;2023-12-22T06:32:00;1.23;;;0.95;;
79574;SDS011;69044;48.198;11.468;2023-12-22T06:34:27;0.90;;;0.90;;
79574;SDS011;69044;48.198;11.468;2023-12-22T06:36:54;1.55;;;0.88;;
79574;SDS011;69044;48.198;11.468;2023-12-22T06:39:21;2.72;;;1.10;;
79574;SDS011;69044;48.198;11.468;2023-12-22T06:41:49;4.60;;;1.02;;
79574;SDS011;69044;48.198;11.468;2023-12-22T06:44:17;2.00;;;1.08;;
79574;SDS011;69044;48.198;11.468;2023-12-22T06:46:44;2.72;;;1.00;;
79574;SDS011;69044;48.198;11.468;2023-12-22T06:49:11;1.80;;;1.20;;
79574;SDS011;69044;48.198;11.468;2023-12-22T06:51:38;2.70;;;1.20;;
79574;SDS011;69044;48.198;11.468;2023-12-22T06:54:06;1.80;;;1.10;;
79574;SDS011;69044;48.198;11.468;2023-12-22T06:56:33;5.25;;;1.15;;
79574;SDS011;69044;48.198;11.468;2023-12-22T06:59:02;3.08;;;1.20;;
79574;SDS011;69044;48.198;11.468;2023-12-22T07:01:30;3.83;;;1.13;;
79574;SDS011;69044;48.198;11.468;2023-12-22T07:03:58;4.78;;;2.45;;
79574;SDS011;69044;48.198;11.468;2023-12-22T07:06:28;3.22;;;1.10;;
79574;SDS011;69044;48.198;11.468;2023-12-22T07:08:56;2.10;;;1.17;;
79574;SDS011;69044;48.198;11.468;2023-12-22T07:11:24;2.00;;;1.10;;
79574;SDS011;69044;48.198;11.468;2023-12-22T07:13:51;2.33;;;1.20;;
79574;SDS011;69044;48.198;11.468;2023-12-22T07:16:19;1.70;;;1.10;;
79574;SDS011;69044;48.198;11.468;2023-12-22T07:18:46;1.73;;;1.20;;
79574;SDS011;69044;48.198;11.468;2023-12-22T07:21:15;4.00;;;1.20;;
79574;SDS011;69044;48.198;11.468;2023-12-22T07:23:43;1.88;;;1.00;;
79574;SDS011;69044;48.198;11.468;2023-12-22T07:26:10;3.72;;;1.10;;
79574;SDS011;69044;48.198;11.468;2023-12-22T07:28:38;1.77;;;1.00;;
79574;SDS011;69044;48.198;11.468;2023-12-22T07:31:06;2.85;;;1.00;;
79574;SDS011;69044;48.198;11.468;2023-12-22T07:33:34;2.72;;;1.00;;
79574;SDS011;69044;48.198;11.468;2023-12-22T07:36:02;4.28;;;1.13;;
79574;SDS011;69044;48.198;11.468;2023-12-22T07:38:29;1.73;;;1.10;;
79574;SDS011;69044;48.198;11.468;2023-12-22T07:40:57;4.55;;;1.23;;
79574;SDS011;69044;48.198;11.468;2023-12-22T07:43:24;3.65;;;1.33;;
79574;SDS011;69044;48.198;11.468;2023-12-22T07:45:51;3.60;;;1.58;;
79574;SDS011;69044;48.198;11.468;2023-12-22T07:48:19;4.28;;;1.05;;
79574;SDS011;69044;48.198;11.468;2023-12-22T07:50:48;4.40;;;1.35;;
79574;SDS011;69044;48.198;11.468;2023-12-22T07:53:15;5.20;;;1.95;;
79574;SDS011;69044;48.198;11.468;2023-12-22T07:55:42;3.40;;;1.50;;
79574;SDS011;69044;48.198;11.468;2023-12-22T07:58:09;3.30;;;1.50;;
79574;SDS011;69044;48.198;11.468;2023-12-22T08:00:37;4.57;;;1.25;;
79574;SDS011;69044;48.198;11.468;2023-12-22T08:03:04;2.03;;;1.05;;
79574;SDS011;69044;48.198;11.468;2023-12-22T08:05:31;1.10;;;0.90;;
79574;SDS011;69044;48.198;11.468;2023-12-22T08:08:00;0.80;;;0.80;;
79574;SDS011;69044;48.198;11.468;2023-12-22T08:10:27;2.05;;;1.15;;
79574;SDS011;69044;48.198;11.468;2023-12-22T08:12:54;3.08;;;1.15;;
79574;SDS011;69044;48.198;11.468;2023-12-22T08:15:21;3.25;;;1.50;;
79574;SDS011;69044;48.198;11.468;2023-12-22T08:17:48;1.00;;;0.90;;
79574;SDS011;69044;48.198;11.468;2023-12-22T08:20:17;2.00;;;1.30;;
79574;SDS011;69044;48.198;11.468;2023-12-22T08:22:45;4.63;;;1.20;;
79574;SDS011;69044;48.198;11.468;2023-12-22T08:25:13;2.97;;;1.08;;
79574;SDS011;69044;48.198;11.468;2023-12-22T08:27:41;3.78;;;1.38;;
79574;SDS011;69044;48.198;11.468;2023-12-22T08:30:09;3.90;;;1.23;;
79574;SDS011;69044;48.198;11.468;2023-12-22T08:32:36;2.88;;;1.17;;
79574;SDS011;69044;48.198;11.468;2023-12-22T08:35:04;5.88;;;1.60;;
79574;SDS011;69044;48.198;11.468;2023-12-22T08:37:32;2.15;;;1.48;;
79574;SDS011;69044;48.198;11.468;2023-12-22T08:39:59;4.13;;;1.67;;
79574;SDS011;69044;48.198;11.468;2023-12-22T08:42:28;4.88;;;1.40;;
79574;SDS011;69044;48.198;11.468;2023-12-22T08:44:56;4.53;;;1.80;;
79574;SDS011;69044;48.198;11.468;2023-12-22T08:47:23;2.08;;;1.20;;
79574;SDS011;69044;48.198;11.468;2023-12-22T08:49:50;2.50;;;1.10;;
79574;SDS011;69044;48.198;11.468;2023-12-22T08:52:18;2.55;;;0.88;;
79574;SDS011;69044;48.198;11.468;2023-12-22T08:54:45;4.80;;;1.50;;
79574;SDS011;69044;48.198;11.468;2023-12-22T08:57:12;4.50;;;1.40;;
79574;SDS011;69044;48.198;11.468;2023-12-22T08:59:40;3.42;;;1.35;;
79574;SDS011;69044;48.198;11.468;2023-12-22T09:02:07;2.25;;;1.10;;
79574;SDS011;69044;48.198;11.468;2023-12-22T09:04:35;1.70;;;1.10;;
79574;SDS011;69044;48.198;11.468;2023-12-22T09:07:02;2.42;;;1.15;;
79574;SDS011;69044;48.198;11.468;2023-12-22T09:09:29;4.45;;;1.40;;
79574;SDS011;69044;48.198;11.468;2023-12-22T09:11:56;2.33;;;1.10;;
79574;SDS011;69044;48.198;11.468;2023-12-22T09:14:23;6.90;;;1.40;;
79574;SDS011;69044;48.198;11.468;2023-12-22T09:16:52;5.55;;;1.50;;
79574;SDS011;69044;48.198;11.468;2023-12-22T09:19:21;3.67;;;1.50;;
79574;SDS011;69044;48.198;11.468;2023-12-22T09:21:48;3.53;;;1.58;;
79574;SDS011;69044;48.198;11.468;2023-12-22T09:24:15;12.23;;;5.15;;
79574;SDS011;69044;48.198;11.468;2023-12-22T09:26:43;9.48;;;3.88;;
79574;SDS011;69044;48.198;11.468;2023-12-22T09:29:10;5.03;;;2.38;;
79574;SDS011;69044;48.198;11.468;2023-12-22T09:31:37;11.30;;;5.03;;
79574;SDS011;69044;48.198;11.468;2023-12-22T09:34:05;9.60;;;4.53;;
79574;SDS011;69044;48.198;11.468;2023-12-22T09:36:32;8.13;;;3.35;;
79574;SDS011;69044;48.198;11.468;2023-12-22T09:38:59;19.20;;;8.07;;
79574;SDS011;69044;48.198;11.468;2023-12-22T09:41:26;25.60;;;10.52;;
79574;SDS011;69044;48.198;11.468;2023-12-22T09:43:54;25.13;;;9.60;;
79574;SDS011;69044;48.198;11.468;2023-12-22T09:46:22;29.27;;;12.73;;
79574;SDS011;69044;48.198;11.468;2023-12-22T09:48:52;42.85;;;18.45;;
79574;SDS011;69044;48.198;11.468;2023-12-22T09:51:20;6.78;;;3.72;;
79574;SDS011;69044;48.198;11.468;2023-12-22T09:53:48;15.07;;;6.47;;
79574;SDS011;69044;48.198;11.468;2023-12-22T09:56:16;3.17;;;1.60;;
79574;SDS011;69044;48.198;11.468;2023-12-22T09:58:44;2.88;;;1.77;;
79574;SDS011;69044;48.198;11.468;2023-12-22T10:01:12;4.13;;;2.03;;
79574;SDS011;69044;48.198;11.468;2023-12-22T10:03:39;2.90;;;1.80;;
79574;SDS011;69044;48.198;11.468;2023-12-22T10:06:10;2.58;;;1.40;;
79574;SDS011;69044;48.198;11.468;2023-12-22T10:08:38;2.25;;;1.52;;
79574;SDS011;69044;48.198;11.468;2023-12-22T10:11:06;3.92;;;1.83;;
79574;SDS011;69044;48.198;11.468;2023-12-22T10:13:36;2.20;;;1.30;;
79574;SDS011;69044;48.198;11.468;2023-12-22T10:16:04;2.40;;;1.50;;
79574;SDS011;69044;48.198;11.468;2023-12-22T10:18:31;2.30;;;1.33;;
79574;SDS011;69044;48.198;11.468;2023-12-22T10:20:59;2.80;;;1.20;;
79574;SDS011;69044;48.198;11.468;2023-12-22T10:23:26;1.80;;;1.10;;
79574;SDS011;69044;48.198;11.468;2023-12-22T10:25:55;2.60;;;1.42;;
79574;SDS011;69044;48.198;11.468;2023-12-22T10:28:24;2.58;;;1.20;;
79574;SDS011;69044;48.198;11.468;2023-12-22T10:30:54;3.60;;;1.50;;
79574;SDS011;69044;48.198;11.468;2023-12-22T10:35:49;2.47;;;1.20;;
79574;SDS011;69044;48.198;11.468;2023-12-22T10:38:18;2.22;;;1.08;;
79574;SDS011;69044;48.198;11.468;2023-12-22T10:40:45;2.20;;;1.50;;
79574;SDS011;69044;48.198;11.468;2023-12-22T10:43:14;4.30;;;1.85;;
79574;SDS011;69044;48.198;11.468;2023-12-22T10:45:41;4.25;;;2.40;;
79574;SDS011;69044;48.198;11.468;2023-12-22T10:48:09;2.28;;;1.48;;
79574;SDS011;69044;48.198;11.468;2023-12-22T10:50:38;3.33;;;1.80;;
79574;SDS011;69044;48.198;11.468;2023-12-22T10:53:06;3.42;;;1.40;;
79574;SDS011;69044;48.198;11.468;2023-12-22T10:55:34;3.38;;;1.75;;
79574;SDS011;69044;48.198;11.468;2023-12-22T10:58:01;2.00;;;1.23;;
79574;SDS011;69044;48.198;11.468;2023-12-22T11:00:30;2.60;;;1.40;;
79574;SDS011;69044;48.198;11.468;2023-12-22T11:03:00;3.60;;;1.23;;
79574;SDS011;69044;48.198;11.468;2023-12-22T11:05:29;3.08;;;1.38;;
79574;SDS011;69044;48.198;11.468;2023-12-22T11:07:56;6.53;;;1.60;;
79574;SDS011;69044;48.198;11.468;2023-12-22T11:10:27;1.90;;;1.30;;
79574;SDS011;69044;48.198;11.468;2023-12-22T11:12:54;2.65;;;1.52;;
79574;SDS011;69044;48.198;11.468;2023-12-22T11:15:24;2.00;;;1.10;;
79574;SDS011;69044;48.198;11.468;2023-12-22T11:17:54;3.45;;;1.38;;
79574;SDS011;69044;48.198;11.468;2023-12-22T11:20:23;1.52;;;1.10;;
79574;SDS011;69044;48.198;11.468;2023-12-22T11:22:51;2.83;;;1.20;;
79574;SDS011;69044;48.198;11.468;2023-12-22T11:25:19;3.08;;;1.00;;
79574;SDS011;69044;48.198;11.468;2023-12-22T11:27:46;6.57;;;1.38;;
79574;SDS011;69044;48.198;11.468;2023-12-22T11:30:14;2.30;;;1.20;;
79574;SDS011;69044;48.198;11.468;2023-12-22T11:32:41;2.45;;;1.30;;
79574;SDS011;69044;48.198;11.468;2023-12-22T11:35:12;2.97;;;1.38;;
79574;SDS011;69044;48.198;11.468;2023-12-22T11:37:40;1.63;;;1.23;;
79574;SDS011;69044;48.198;11.468;2023-12-22T11:40:08;1.67;;;1.10;;
79574;SDS011;69044;48.198;11.468;2023-12-22T11:42:37;2.70;;;1.08;;
79574;SDS011;69044;48.198;11.468;2023-12-22T11:45:09;3.38;;;1.40;;
79574;SDS011;69044;48.198;11.468;2023-12-22T11:47:36;2.67;;;1.50;;
79574;SDS011;69044;48.198;11.468;2023-12-22T11:50:05;2.35;;;1.30;;
79574;SDS011;69044;48.198;11.468;2023-12-22T11:52:37;2.38;;;1.27;;
79574;SDS011;69044;48.198;11.468;2023-12-22T11:55:04;2.97;;;1.40;;
79574;SDS011;69044;48.198;11.468;2023-12-22T11:57:33;1.73;;;1.05;;
79574;SDS011;69044;48.198;11.468;2023-12-22T12:00:02;3.30;;;1.40;;
79574;SDS011;69044;48.198;11.468;2023-12-22T12:02:39;8.63;;;3.40;;
79574;SDS011;69044;48.198;11.468;2023-12-22T12:05:07;6.20;;;2.97;;
79574;SDS011;69044;48.198;11.468;2023-12-22T12:07:40;4.13;;;2.42;;
79574;SDS011;69044;48.198;11.468;2023-12-22T12:10:11;2.85;;;1.85;;
79574;SDS011;69044;48.198;11.468;2023-12-22T12:12:38;3.28;;;1.83;;
79574;SDS011;69044;48.198;11.468;2023-12-22T12:15:09;5.30;;;1.40;;
79574;SDS011;69044;48.198;11.468;2023-12-22T12:17:37;4.53;;;1.30;;
79574;SDS011;69044;48.198;11.468;2023-12-22T12:20:05;4.65;;;2.50;;
79574;SDS011;69044;48.198;11.468;2023-12-22T12:22:35;4.40;;;2.40;;
79574;SDS011;69044;48.198;11.468;2023-12-22T12:25:05;3.83;;;1.50;;
79574;SDS011;69044;48.198;11.468;2023-12-22T12:27:34;2.65;;;1.30;;
79574;SDS011;69044;48.198;11.468;2023-12-22T12:30:12;2.53;;;1.52;;
79574;SDS011;69044;48.198;11.468;2023-12-22T12:32:41;1.65;;;1.20;;
79574;SDS011;69044;48.198;11.468;2023-12-22T12:35:09;3.38;;;1.70;;
79574;SDS011;69044;48.198;11.468;2023-12-22T12:37:37;3.30;;;1.63;;
79574;SDS011;69044;48.198;11.468;2023-12-22T12:40:06;2.55;;;1.73;;
79574;SDS011;69044;48.198;11.468;2023-12-22T12:42:35;3.15;;;1.60;;
79574;SDS011;69044;48.198;11.468;2023-12-22T12:45:04;4.95;;;1.50;;
79574;SDS011;69044;48.198;11.468;2023-12-22T12:47:32;2.53;;;1.40;;
79574;SDS011;69044;48.198;11.468;2023-12-22T12:49:59;1.95;;;1.25;;
79574;SDS011;69044;48.198;11.468;2023-12-22T12:52:27;3.90;;;1.55;;
79574;SDS011;69044;48.198;11.468;2023-12-22T12:54:54;2.47;;;1.38;;
79574;SDS011;69044;48.198;11.468;2023-12-22T12:57:25;2.25;;;1.10;;
79574;SDS011;69044;48.198;11.468;2023-12-22T12:59:52;5.95;;;1.20;;
79574;SDS011;69044;48.198;11.468;2023-12-22T13:02:19;2.45;;;1.10;;
79574;SDS011;69044;48.198;11.468;2023-12-22T13:04:48;3.72;;;1.30;;
79574;SDS011;69044;48.198;11.468;2023-12-22T13:07:23;2.35;;;1.20;;
79574;SDS011;69044;48.198;11.468;2023-12-22T13:09:50;3.00;;;1.30;;
79574;SDS011;69044;48.198;11.468;2023-12-22T13:12:19;1.83;;;1.27;;
79574;SDS011;69044;48.198;11.468;2023-12-22T13:14:48;3.25;;;1.10;;
79574;SDS011;69044;48.198;11.468;2023-12-22T13:17:15;2.10;;;1.00;;
79574;SDS011;69044;48.198;11.468;2023-12-22T13:19:42;1.67;;;1.10;;
79574;SDS011;69044;48.198;11.468;2023-12-22T13:22:10;4.25;;;1.20;;
79574;SDS011;69044;48.198;11.468;2023-12-22T13:24:37;1.75;;;1.10;;
79574;SDS011;69044;48.198;11.468;2023-12-22T13:27:04;2.33;;;1.30;;
79574;SDS011;69044;48.198;11.468;2023-12-22T13:29:42;4.57;;;1.70;;
79574;SDS011;69044;48.198;11.468;2023-12-22T13:32:21;3.17;;;1.50;;
79574;SDS011;69044;48.198;11.468;2023-12-22T13:34:50;6.15;;;2.10;;
79574;SDS011;69044;48.198;11.468;2023-12-22T13:37:18;5.00;;;2.35;;
79574;SDS011;69044;48.198;11.468;2023-12-22T13:39:45;4.65;;;2.20;;
79574;SDS011;69044;48.198;11.468;2023-12-22T13:44:43;6.05;;;2.58;;
79574;SDS011;69044;48.198;11.468;2023-12-22T13:47:10;3.88;;;2.10;;
79574;SDS011;69044;48.198;11.468;2023-12-22T13:49:38;7.68;;;2.10;;
79574;SDS011;69044;48.198;11.468;2023-12-22T13:52:06;2.70;;;1.40;;
79574;SDS011;69044;48.198;11.468;2023-12-22T13:54:33;2.00;;;1.20;;
79574;SDS011;69044;48.198;11.468;2023-12-22T13:57:01;1.75;;;1.15;;
79574;SDS011;69044;48.198;11.468;2023-12-22T13:59:31;2.53;;;1.27;;
79574;SDS011;69044;48.198;11.468;2023-12-22T14:01:58;1.63;;;1.13;;
79574;SDS011;69044;48.198;11.468;2023-12-22T14:04:26;2.25;;;1.10;;
79574;SDS011;69044;48.198;11.468;2023-12-22T14:06:54;3.65;;;1.25;;
79574;SDS011;69044;48.198;11.468;2023-12-22T14:09:21;1.88;;;1.10;;
79574;SDS011;69044;48.198;11.468;2023-12-22T14:11:50;2.97;;;1.10;;
79574;SDS011;69044;48.198;11.468;2023-12-22T14:14:17;1.35;;;0.90;;
79574;SDS011;69044;48.198;11.468;2023-12-22T14:16:45;3.38;;;1.02;;
79574;SDS011;69044;48.198;11.468;2023-12-22T14:19:12;1.85;;;1.05;;
79574;SDS011;69044;48.198;11.468;2023-12-22T14:21:40;2.80;;;1.10;;
79574;SDS011;69044;48.198;11.468;2023-12-22T14:24:08;4.15;;;1.10;;
79574;SDS011;69044;48.198;11.468;2023-12-22T14:29:20;2.40;;;1.25;;
79574;SDS011;69044;48.198;11.468;2023-12-22T14:31:49;2.90;;;1.00;;
79574;SDS011;69044;48.198;11.468;2023-12-22T14:34:16;2.33;;;1.15;;
79574;SDS011;69044;48.198;11.468;2023-12-22T14:36:43;2.13;;;1.05;;
79574;SDS011;69044;48.198;11.468;2023-12-22T14:39:12;2.75;;;1.30;;
79574;SDS011;69044;48.198;11.468;2023-12-22T14:41:40;1.52;;;1.10;;
79574;SDS011;69044;48.198;11.468;2023-12-22T14:44:07;2.40;;;1.20;;